Time;durP1;ratioP1;P1;durP2;ratioP2;P2;SDS_P1;SDS_P2;PMS_P1;PMS_P2;Temp;Humidity;BMP_temperature;BMP_pressure;BME280_temperature;BME280_humidity;BME280_pressure;Samples;Min_cycle;Max_cycle;Signal;HPM_P1;HPM_P2
2022/03/12 00:01:38;;;;;;;;;51.25;42.00;;;;;-1.44;40.48;100730.84;4933516;28;9025;-81
2022/03/12 00:04:08;;;;;;;;;54.00;46.50;;;;;-1.39;40.37;100728.59;4918076;28;9634;-83
2022/03/12 00:06:38;;;;;;;;;60.25;48.25;;;;;-1.19;39.59;100730.81;4917269;28;8993;-82
2022/03/12 00:09:07;;;;;;;;;56.00;43.00;;;;;-0.97;39.45;100729.63;4934462;28;8878;-79
2022/03/12 00:11:40;;;;;;;;;46.00;42.75;;;;;-0.68;38.81;100720.34;4936225;28;8992;-80
2022/03/12 00:14:09;;;;;;;;;45.25;44.50;;;;;-0.43;38.89;100726.25;4952012;28;8901;-79
2022/03/12 00:16:38;;;;;;;;;41.00;36.50;;;;;-0.26;36.92;100719.59;4936753;28;8921;-80
2022/03/12 00:19:10;;;;;;;;;44.00;38.50;;;;;-0.16;35.24;100717.63;4936415;28;8864;-81
2022/03/12 00:21:42;;;;;;;;;35.00;34.00;;;;;-0.12;34.67;100717.88;4952270;28;8867;-79
2022/03/12 00:24:15;;;;;;;;;46.75;36.75;;;;;0.01;34.72;100718.63;4935973;28;8882;-79
2022/03/12 00:26:45;;;;;;;;;38.75;36.75;;;;;0.10;34.38;100707.25;4952588;28;8879;-80
2022/03/12 00:29:15;;;;;;;;;37.50;32.50;;;;;0.18;33.77;100711.16;4973488;28;8861;-84
2022/03/12 00:31:45;;;;;;;;;36.50;33.00;;;;;0.30;33.96;100705.91;4988616;28;8868;-79
2022/03/12 00:34:14;;;;;;;;;38.50;31.50;;;;;0.37;33.89;100702.88;4990041;28;8861;-83
2022/03/12 00:36:46;;;;;;;;;22.50;20.50;;;;;0.42;33.62;100710.84;4977657;28;8849;-79
2022/03/12 00:39:16;;;;;;;;;36.50;35.00;;;;;0.49;33.65;100707.88;4978194;28;8865;-80
2022/03/12 00:41:45;;;;;;;;;38.50;35.50;;;;;0.49;32.44;100697.59;4976021;28;8857;-78
2022/03/12 00:44:17;;;;;;;;;35.50;31.00;;;;;0.56;32.30;100694.56;4996006;28;8979;-79
2022/03/12 00:46:47;;;;;;;;;33.00;28.25;;;;;0.55;32.17;100694.50;4976622;28;8892;-83
2022/03/12 00:49:17;;;;;;;;;36.25;32.50;;;;;0.54;32.61;100696.16;4974337;28;8861;-81
2022/03/12 00:51:48;;;;;;;;;36.25;31.75;;;;;0.52;31.84;100690.06;4990597;28;8911;-80
2022/03/12 00:54:17;;;;;;;;;31.50;26.50;;;;;0.60;31.95;100694.75;4974924;28;8849;-78
2022/03/12 00:56:45;;;;;;;;;11.25;11.25;;;;;0.61;31.87;100691.41;4974542;28;8884;-81
2022/03/12 00:59:14;;;;;;;;;30.50;30.50;;;;;0.66;31.82;100688.31;4972858;28;8855;-80
2022/03/12 01:01:44;;;;;;;;;28.25;28.25;;;;;0.67;31.76;100677.22;4972732;28;8837;-78
2022/03/12 01:04:13;;;;;;;;;28.50;26.00;;;;;0.67;32.40;100687.50;4991033;28;8940;-79
2022/03/12 01:06:42;;;;;;;;;30.50;27.25;;;;;0.68;31.68;100688.38;4993944;28;8876;-79
2022/03/12 01:09:12;;;;;;;;;36.50;34.00;;;;;0.60;31.98;100687.06;4978952;28;8932;-79
2022/03/12 01:11:42;;;;;;;;;38.50;32.50;;;;;-0.05;33.28;100694.38;4969547;28;8985;-78
2022/03/12 01:14:10;;;;;;;;;46.25;38.75;;;;;-0.49;34.88;100694.22;4977373;28;8899;-79
2022/03/12 01:16:39;;;;;;;;;36.25;26.25;;;;;-0.99;34.98;100698.81;4977480;28;8855;-82
2022/03/12 01:19:08;;;;;;;;;28.00;23.50;;;;;-1.21;35.67;100699.13;4974973;28;8994;-79
2022/03/12 01:21:37;;;;;;;;;33.00;27.25;;;;;-1.22;35.58;100693.88;4958605;28;8883;-81
2022/03/12 01:24:06;;;;;;;;;35.25;29.00;;;;;-1.04;35.31;100695.09;4976471;28;9617;-79
2022/03/12 01:26:36;;;;;;;;;36.00;32.00;;;;;-1.08;35.00;100695.66;4996645;28;8867;-78
2022/03/12 01:29:07;;;;;;;;;27.25;24.75;;;;;-1.10;35.41;100698.91;4996988;28;8985;-81
2022/03/12 01:31:37;;;;;;;;;41.75;34.00;;;;;-1.49;35.71;100701.53;5013078;28;8866;-79
2022/03/12 01:34:05;;;;;;;;;32.00;25.50;;;;;-2.00;36.71;100704.91;5013949;28;8888;-80
2022/03/12 01:36:34;;;;;;;;;34.25;25.00;;;;;-2.19;36.52;100706.19;4983187;28;8870;-79
2022/03/12 01:39:03;;;;;;;;;16.00;13.50;;;;;-2.37;37.04;100710.03;4977984;28;8886;-80
2022/03/12 01:41:40;;;;;;;;;21.50;19.00;;;;;-2.41;36.79;100713.16;4976591;28;8890;-79
2022/03/12 01:44:15;;;;;;;;;25.75;22.00;;;;;-2.44;37.04;100724.06;4993283;28;8895;-79
2022/03/12 01:46:47;;;;;;;;;15.25;15.25;;;;;-2.66;37.28;100720.75;4976941;28;9725;-78
2022/03/12 01:49:21;;;;;;;;;23.75;18.50;;;;;-2.64;37.73;100725.19;4977719;28;8859;-77
2022/03/12 01:51:51;;;;;;;;;23.50;21.50;;;;;-2.70;38.17;100721.28;4977424;28;8886;-80
2022/03/12 01:54:24;;;;;;;;;25.25;22.75;;;;;-2.59;38.35;100728.97;4961382;28;8896;-81
2022/03/12 01:56:54;;;;;;;;;29.50;29.00;;;;;-2.41;38.33;100726.81;4991943;28;8896;-83
2022/03/12 01:59:25;;;;;;;;;26.75;23.00;;;;;-2.29;38.18;100728.44;4938511;28;9596;-81
2022/03/12 02:01:54;;;;;;;;;32.50;27.00;;;;;-2.21;38.60;100728.22;4949772;28;8978;-84
2022/03/12 02:04:25;;;;;;;;;24.25;22.75;;;;;-1.98;37.68;100732.34;4993293;28;8861;-81
2022/03/12 02:06:54;;;;;;;;;26.50;26.00;;;;;-1.74;37.66;100739.00;4961267;28;8837;-82
2022/03/12 02:09:23;;;;;;;;;29.00;27.50;;;;;-1.49;36.88;100734.78;4960700;28;9674;-80
2022/03/12 02:11:52;;;;;;;;;30.00;26.50;;;;;-1.26;36.54;100736.31;4976391;28;8857;-81
2022/03/12 02:14:24;;;;;;;;;24.50;24.50;;;;;-1.08;35.84;100736.59;4960654;28;8845;-80
2022/03/12 02:16:57;;;;;;;;;35.00;31.00;;;;;-0.92;35.35;100738.50;4934435;29;9772;-80
2022/03/12 02:19:28;;;;;;;;;27.25;25.50;;;;;-0.76;35.05;100735.25;4950550;28;8903;-80
2022/03/12 02:21:59;;;;;;;;;15.50;12.00;;;;;-0.64;34.40;100742.84;4930978;29;8913;-80
2022/03/12 02:24:33;;;;;;;;;23.25;22.50;;;;;-0.58;33.98;100740.66;4915769;29;8980;-81
2022/03/12 02:27:04;;;;;;;;;18.50;16.25;;;;;-0.52;33.81;100743.59;4932462;29;9097;-80
2022/03/12 02:29:33;;;;;;;;;25.75;22.50;;;;;-0.44;33.30;100750.09;4947867;29;8897;-83
2022/03/12 02:32:09;;;;;;;;;23.50;21.25;;;;;-0.36;33.82;100750.56;4931924;29;8965;-80
2022/03/12 02:34:42;;;;;;;;;25.25;23.50;;;;;-0.31;33.55;100754.31;4933477;28;8986;-82
2022/03/12 02:37:12;;;;;;;;;27.25;22.50;;;;;-0.27;32.71;100748.56;4934849;28;8909;-80
2022/03/12 02:39:42;;;;;;;;;24.50;23.00;;;;;-0.27;32.47;100752.81;4919506;28;8882;-82
2022/03/12 02:42:11;;;;;;;;;30.75;27.00;;;;;-0.25;32.46;100748.69;4966603;28;8892;-79
2022/03/12 02:44:40;;;;;;;;;25.25;21.75;;;;;-0.24;32.91;100745.34;4950190;28;8987;-79
2022/03/12 02:47:14;;;;;;;;;28.00;25.25;;;;;-0.21;32.57;100743.84;4969866;28;8881;-80
2022/03/12 02:49:48;;;;;;;;;20.25;19.50;;;;;-0.18;32.81;100744.84;4942498;28;8895;-79
2022/03/12 02:52:18;;;;;;;;;30.00;27.00;;;;;-0.16;33.13;100749.25;4989239;28;9003;-78
2022/03/12 02:54:50;;;;;;;;;31.75;26.00;;;;;-0.11;32.57;100750.44;4956809;28;8889;-78
2022/03/12 02:57:25;;;;;;;;;31.75;29.50;;;;;-0.10;33.29;100746.19;4965901;28;8872;-79
2022/03/12 02:59:54;;;;;;;;;39.50;34.50;;;;;-0.46;34.33;100749.09;4974919;28;8864;-82
2022/03/12 03:02:28;;;;;;;;;29.00;22.75;;;;;-0.79;34.60;100748.75;4974832;28;8861;-85
2022/03/12 03:04:57;;;;;;;;;33.25;28.50;;;;;-1.13;34.94;100758.47;4974505;28;8869;-85
2022/03/12 03:07:29;;;;;;;;;24.50;23.25;;;;;-1.20;35.73;100759.72;4974734;28;8911;-82
2022/03/12 03:09:59;;;;;;;;;30.00;30.00;;;;;-1.37;35.83;100761.16;4990320;28;8873;-82
2022/03/12 03:12:27;;;;;;;;;28.50;23.50;;;;;-1.67;36.39;100759.13;4975032;28;8856;-83
2022/03/12 03:14:56;;;;;;;;;36.75;29.75;;;;;-2.13;37.52;100756.84;4974366;28;8837;-80
2022/03/12 03:17:25;;;;;;;;;28.25;25.25;;;;;-2.20;38.53;100762.31;4992055;28;8991;-83
2022/03/12 03:19:54;;;;;;;;;30.25;27.50;;;;;-2.10;38.29;100767.25;4988602;28;8866;-83
2022/03/12 03:22:22;;;;;;;;;29.75;27.50;;;;;-2.03;38.67;100766.03;4972758;28;8870;-82
2022/03/12 03:24:51;;;;;;;;;33.75;30.25;;;;;-2.23;39.01;100764.63;4951625;28;8864;-79
2022/03/12 03:27:21;;;;;;;;;33.25;32.25;;;;;-2.16;39.23;100767.72;4953582;28;8864;-82
2022/03/12 03:29:50;;;;;;;;;36.00;34.25;;;;;-2.25;39.61;100764.56;4934311;28;10166;-79
2022/03/12 03:32:19;;;;;;;;;43.00;38.75;;;;;-1.93;39.71;100762.44;4934501;28;8859;-80
2022/03/12 03:34:48;;;;;;;;;61.50;52.00;;;;;-1.71;40.19;100760.56;4930413;29;8878;-78
2022/03/12 03:37:17;;;;;;;;;58.25;46.75;;;;;-1.71;40.51;100767.38;4913966;29;8920;-78
2022/03/12 03:39:46;;;;;;;;;67.00;54.00;;;;;-1.55;41.07;100767.63;4930192;29;8869;-78
2022/03/12 03:42:22;;;;;;;;;70.00;57.00;;;;;-1.37;40.88;100770.53;4914606;29;9098;-79
2022/03/12 03:44:52;;;;;;;;;72.67;60.00;;;;;-1.26;41.07;100773.81;4914339;29;9317;-78
2022/03/12 03:47:20;;;;;;;;;60.25;48.75;;;;;-1.48;40.70;100771.47;4930086;29;9294;-79
2022/03/12 03:49:49;;;;;;;;;59.00;50.50;;;;;-1.50;41.19;100775.59;4897735;29;8856;-78
2022/03/12 03:52:18;;;;;;;;;60.00;49.50;;;;;-1.43;40.64;100778.66;4932198;29;8880;-81
2022/03/12 03:54:46;;;;;;;;;68.00;53.75;;;;;-1.39;41.22;100785.75;4901293;29;8895;-81
2022/03/12 03:57:17;;;;;;;;;72.00;56.25;;;;;-1.89;41.28;100787.44;4883784;29;8881;-80
2022/03/12 03:59:48;;;;;;;;;71.00;57.00;;;;;-2.35;42.74;100793.63;4915660;29;8967;-81
2022/03/12 04:02:17;;;;;;;;;68.00;55.50;;;;;-2.34;43.20;100799.66;4934040;28;9022;-79
2022/03/12 04:04:48;;;;;;;;;69.33;53.33;;;;;-2.22;42.79;100808.19;4917522;28;9044;-79
2022/03/12 04:07:17;;;;;;;;;54.33;48.33;;;;;-2.09;42.53;100806.50;4984485;28;9186;-79
2022/03/12 04:09:46;;;;;;;;;60.00;48.33;;;;;-2.00;42.61;100810.59;4949921;28;9007;-78
2022/03/12 04:12:15;;;;;;;;;69.33;55.67;;;;;-2.11;42.87;100808.94;4965437;28;9168;-79
2022/03/12 04:14:44;;;;;;;;;57.33;47.33;;;;;-2.61;44.36;100808.75;4933682;28;9107;-83
2022/03/12 04:17:18;;;;;;;;;69.25;51.25;;;;;-2.89;45.04;100818.63;4933742;28;9071;-86
2022/03/12 04:19:47;;;;;;;;;47.25;40.50;;;;;-2.86;45.18;100814.63;4918383;28;9022;-79
2022/03/12 04:22:18;;;;;;;;;57.00;50.67;;;;;-2.59;44.50;100807.19;4951944;28;9000;-79
2022/03/12 04:24:46;;;;;;;;;68.33;54.00;;;;;-2.33;44.39;100806.53;4935995;28;8956;-79
2022/03/12 04:27:15;;;;;;;;;76.67;60.33;;;;;-2.13;44.52;100812.19;4935565;28;9031;-77
2022/03/12 04:29:44;;;;;;;;;73.33;61.33;;;;;-1.98;44.64;100818.38;4951989;28;9194;-81
2022/03/12 04:32:16;;;;;;;;;81.33;63.00;;;;;-1.85;44.56;100810.78;4935590;28;9455;-80
2022/03/12 04:34:46;;;;;;;;;67.67;56.67;;;;;-1.70;44.11;100820.25;4897668;28;10192;-79
2022/03/12 04:37:15;;;;;;;;;74.67;58.67;;;;;-1.62;43.41;100821.69;4970638;28;9445;-78
2022/03/12 04:39:44;;;;;;;;;80.33;62.67;;;;;-1.57;43.96;100817.75;4954631;28;9312;-79
2022/03/12 04:42:13;;;;;;;;;72.67;56.67;;;;;-1.48;43.98;100825.19;4988506;28;9029;-79
2022/03/12 04:44:41;;;;;;;;;76.33;59.33;;;;;-1.45;43.59;100826.28;4987966;28;9119;-78
2022/03/12 04:47:11;;;;;;;;;72.00;57.33;;;;;-1.43;43.92;100829.84;4973556;28;9082;-81
2022/03/12 04:49:41;;;;;;;;;70.67;55.67;;;;;-1.41;43.75;100825.72;4991081;28;9019;-78
2022/03/12 04:52:11;;;;;;;;;87.00;68.25;;;;;-1.39;44.00;100828.38;4990054;28;9196;-81
2022/03/12 04:54:40;;;;;;;;;81.75;64.00;;;;;-1.37;44.42;100829.38;4989585;28;10967;-82
2022/03/12 04:57:09;;;;;;;;;71.33;56.33;;;;;-1.34;43.46;100838.91;4973150;28;9646;-80
2022/03/12 04:59:38;;;;;;;;;73.67;62.33;;;;;-1.31;43.61;100829.78;4989771;28;9336;-79
2022/03/12 05:02:12;;;;;;;;;82.33;65.67;;;;;-1.28;44.32;100822.31;4972660;28;9195;-82
2022/03/12 05:04:42;;;;;;;;;81.33;67.33;;;;;-1.26;43.96;100824.97;4991223;28;9441;-80
2022/03/12 05:07:13;;;;;;;;;67.67;57.67;;;;;-1.23;44.46;100830.28;4991009;28;9448;-79
2022/03/12 05:09:44;;;;;;;;;69.67;54.00;;;;;-1.20;43.61;100827.94;4987096;28;9424;-82
2022/03/12 05:12:13;;;;;;;;;70.67;58.00;;;;;-1.18;44.26;100826.38;4987569;28;9369;-82
2022/03/12 05:14:49;;;;;;;;;85.75;66.50;;;;;-1.15;43.69;100829.16;4971400;28;9494;-80
2022/03/12 05:17:23;;;;;;;;;84.25;66.50;;;;;-1.13;43.94;100839.50;4970814;28;9675;-82
2022/03/12 05:19:53;;;;;;;;;85.75;68.00;;;;;-1.13;44.06;100837.81;4971011;28;9859;-77
2022/03/12 05:22:22;;;;;;;;;75.67;59.33;;;;;-1.09;43.64;100846.59;4939116;28;9967;-81
2022/03/12 05:24:51;;;;;;;;;72.33;55.00;;;;;-1.16;43.61;100846.97;4987489;28;10280;-79
2022/03/12 05:27:21;;;;;;;;;73.33;56.00;;;;;-1.19;43.46;100850.22;4954818;28;9568;-81
2022/03/12 05:29:54;;;;;;;;;78.33;61.33;;;;;-1.13;43.42;100854.84;4935810;28;9246;-81
2022/03/12 05:32:23;;;;;;;;;48.00;37.00;;;;;-1.10;43.90;100855.03;4951956;28;10118;-85
2022/03/12 05:34:54;;;;;;;;;70.00;57.67;;;;;-1.03;43.19;100855.53;4948093;29;9122;-81
2022/03/12 05:37:23;;;;;;;;;65.00;50.00;;;;;-0.95;43.43;100860.31;4933438;29;9610;-80
2022/03/12 05:39:54;;;;;;;;;66.67;56.33;;;;;-0.89;43.10;100841.13;4933027;29;9233;-80
2022/03/12 05:42:23;;;;;;;;;61.67;51.67;;;;;-0.81;42.88;100849.31;4887113;29;9377;-82
2022/03/12 05:44:54;;;;;;;;;71.67;58.67;;;;;-0.72;42.76;100842.22;4956571;28;9254;-79
2022/03/12 05:47:23;;;;;;;;;68.67;55.33;;;;;-0.62;43.11;100853.97;4954801;28;9061;-83
2022/03/12 05:49:53;;;;;;;;;75.67;62.33;;;;;-0.59;42.45;100854.16;4954518;28;9192;-81
2022/03/12 05:52:21;;;;;;;;;66.00;54.00;;;;;-0.52;42.37;100852.88;4989676;28;9546;-82
2022/03/12 05:54:50;;;;;;;;;76.33;61.67;;;;;-0.45;42.27;100850.81;4988745;28;9402;-79
2022/03/12 05:57:19;;;;;;;;;74.67;57.33;;;;;-0.37;42.54;100859.00;4995548;28;9274;-82
2022/03/12 05:59:49;;;;;;;;;23.00;12.67;;;;;-0.27;41.72;100863.03;4969503;28;9108;-79
2022/03/12 06:02:17;;;;;;;;;58.67;52.00;;;;;-0.21;42.32;100865.97;4954403;28;10145;-78
2022/03/12 06:04:47;;;;;;;;;77.00;61.00;;;;;-0.12;41.37;100861.44;4938290;28;9170;-80
2022/03/12 06:07:18;;;;;;;;;76.00;63.00;;;;;-0.10;41.45;100865.00;4974414;28;9278;-77
2022/03/12 06:09:47;;;;;;;;;78.67;63.33;;;;;-0.01;40.86;100867.25;4991626;28;9334;-82
2022/03/12 06:12:18;;;;;;;;;54.25;48.75;;;;;0.08;40.34;100862.72;4991873;28;9510;-80
2022/03/12 06:14:47;;;;;;;;;68.00;54.25;;;;;-0.02;39.91;100866.38;4991355;28;8899;-81
2022/03/12 06:17:16;;;;;;;;;63.50;53.00;;;;;0.01;39.15;100864.78;4990012;28;8856;-82
2022/03/12 06:19:45;;;;;;;;;54.50;48.50;;;;;0.08;38.49;100865.28;4973355;28;8864;-85
2022/03/12 06:22:13;;;;;;;;;66.50;53.00;;;;;0.28;38.64;100871.63;4954589;28;9014;-83
2022/03/12 06:24:44;;;;;;;;;57.25;48.75;;;;;0.38;39.04;100876.56;4939451;28;8973;-82
2022/03/12 06:27:12;;;;;;;;;69.25;50.25;;;;;0.58;38.59;100879.44;4987657;28;8927;-77
2022/03/12 06:29:41;;;;;;;;;52.50;47.25;;;;;0.70;38.69;100877.66;4992483;28;8885;-81
2022/03/12 06:32:12;;;;;;;;;45.75;42.25;;;;;-0.23;39.33;100893.19;4970395;28;8878;-80
2022/03/12 06:34:41;;;;;;;;;67.50;56.50;;;;;-0.03;39.17;100891.91;4938506;28;9036;-80
2022/03/12 06:37:10;;;;;;;;;62.50;53.50;;;;;0.08;38.47;100893.50;4954406;28;8906;-81
2022/03/12 06:39:40;;;;;;;;;73.67;54.67;;;;;0.30;38.90;100893.16;4970848;28;8976;-83
2022/03/12 06:42:10;;;;;;;;;71.33;58.67;;;;;0.49;39.17;100886.59;4954174;28;8967;-81
2022/03/12 06:44:38;;;;;;;;;78.67;61.67;;;;;0.62;38.42;100893.34;4938300;28;9201;-79
2022/03/12 06:47:09;;;;;;;;;62.00;50.75;;;;;0.15;37.35;100895.66;4931696;29;9188;-78
2022/03/12 06:49:38;;;;;;;;;66.50;54.00;;;;;0.48;37.24;100905.34;4887261;29;8879;-81
2022/03/12 06:52:09;;;;;;;;;65.75;51.50;;;;;0.74;37.29;100899.25;4932304;29;8961;-81
2022/03/12 06:54:38;;;;;;;;;67.00;53.25;;;;;1.00;37.63;100900.78;4931298;29;8878;-81
2022/03/12 06:57:07;;;;;;;;;70.50;53.25;;;;;1.22;37.53;100904.66;4914896;29;9003;-78
2022/03/12 06:59:37;;;;;;;;;53.25;46.50;;;;;1.35;37.49;100894.31;4931050;29;8867;-79
2022/03/12 07:02:08;;;;;;;;;60.75;48.00;;;;;1.51;37.35;100902.13;4931118;29;8888;-80
2022/03/12 07:04:37;;;;;;;;;68.00;55.50;;;;;1.65;36.91;100900.31;4938235;28;8864;-80
2022/03/12 07:07:06;;;;;;;;;57.75;50.25;;;;;1.85;36.09;100900.56;4937015;28;9106;-79
2022/03/12 07:09:35;;;;;;;;;62.75;50.25;;;;;2.00;35.53;100908.25;4953391;28;8875;-78
2022/03/12 07:12:05;;;;;;;;;63.75;52.00;;;;;2.15;35.03;100896.22;4953200;28;8883;-82
2022/03/12 07:14:36;;;;;;;;;63.75;51.50;;;;;2.27;34.81;100899.50;4922004;28;8891;-78
2022/03/12 07:17:06;;;;;;;;;64.25;55.25;;;;;2.45;35.14;100903.84;4968966;28;8882;-82
2022/03/12 07:19:34;;;;;;;;;47.75;42.50;;;;;2.60;34.59;100902.09;4973215;28;8857;-80
2022/03/12 07:22:03;;;;;;;;;60.50;51.25;;;;;2.75;34.43;100906.31;4948999;28;8854;-82
2022/03/12 07:24:32;;;;;;;;;67.00;56.00;;;;;2.85;34.05;100904.28;4917824;28;9020;-82
2022/03/12 07:27:03;;;;;;;;;65.75;52.25;;;;;2.98;33.90;100908.38;4949706;28;8846;-82
2022/03/12 07:29:32;;;;;;;;;69.00;56.50;;;;;2.47;33.69;100909.97;4917876;28;8977;-78
2022/03/12 07:32:01;;;;;;;;;61.75;54.25;;;;;2.61;34.00;100908.13;4917189;28;8916;-83
2022/03/12 07:34:32;;;;;;;;;65.25;52.75;;;;;2.75;34.11;100906.31;4965092;28;8869;-79
2022/03/12 07:37:00;;;;;;;;;69.75;58.00;;;;;2.83;33.94;100905.88;4965204;28;8892;-83
2022/03/12 07:39:29;;;;;;;;;74.75;57.25;;;;;2.40;33.49;100913.91;4965172;28;9714;-79
2022/03/12 07:41:58;;;;;;;;;67.00;54.00;;;;;2.33;34.30;100919.53;4930037;28;8947;-79
2022/03/12 07:44:26;;;;;;;;;67.00;57.25;;;;;2.24;34.84;100930.19;4964234;28;8901;-78
2022/03/12 07:46:58;;;;;;;;;62.50;52.25;;;;;2.31;34.14;100929.75;4946458;28;8895;-80
2022/03/12 07:49:28;;;;;;;;;69.50;56.00;;;;;2.57;34.68;100938.00;4964235;28;8874;-79
2022/03/12 07:51:58;;;;;;;;;69.33;57.33;;;;;2.62;33.62;100941.69;4945245;28;8878;-79
2022/03/12 07:54:26;;;;;;;;;55.25;45.50;;;;;2.22;34.35;100938.63;5019416;28;9000;-79
2022/03/12 07:56:55;;;;;;;;;69.50;57.75;;;;;2.27;34.72;100943.25;4967743;28;8877;-78
2022/03/12 07:59:26;;;;;;;;;58.75;48.50;;;;;2.52;34.72;100947.16;4986348;28;8975;-79
2022/03/12 08:01:55;;;;;;;;;73.00;57.00;;;;;2.79;34.44;100934.00;4981568;28;8888;-74
2022/03/12 08:04:24;;;;;;;;;72.75;56.75;;;;;2.66;35.15;100933.31;4984071;28;8888;-75
2022/03/12 08:06:52;;;;;;;;;57.75;48.50;;;;;1.75;34.32;100946.31;4985707;28;8902;-74
2022/03/12 08:09:22;;;;;;;;;72.75;56.75;;;;;1.72;35.41;100948.72;4967510;28;9006;-74
2022/03/12 08:11:51;;;;;;;;;59.50;50.50;;;;;1.53;35.76;100959.63;4975879;28;8896;-76
2022/03/12 08:14:22;;;;;;;;;56.75;47.00;;;;;1.48;35.17;100952.44;4954207;28;8865;-77
2022/03/12 08:16:52;;;;;;;;;69.25;59.00;;;;;1.16;36.05;100944.59;4970670;28;8857;-78
2022/03/12 08:19:22;;;;;;;;;69.00;55.00;;;;;1.52;35.69;100949.25;4985736;28;8888;-76
2022/03/12 08:21:52;;;;;;;;;70.00;58.25;;;;;1.53;35.64;100954.50;4947732;28;8937;-79
2022/03/12 08:24:24;;;;;;;;;78.33;61.67;;;;;1.90;35.68;100948.88;4934802;28;8870;-77
2022/03/12 08:26:52;;;;;;;;;71.00;58.25;;;;;2.29;35.03;100943.34;4932413;28;9125;-78
2022/03/12 08:29:21;;;;;;;;;75.25;57.00;;;;;2.32;34.59;100946.06;4950318;28;8882;-77
2022/03/12 08:31:50;;;;;;;;;72.75;57.25;;;;;1.64;35.45;100946.50;4980043;28;8862;-78
2022/03/12 08:34:19;;;;;;;;;72.25;59.25;;;;;1.12;36.04;100952.91;4966585;28;8874;-77
2022/03/12 08:36:48;;;;;;;;;64.00;51.25;;;;;1.38;36.20;100948.47;4952138;28;9027;-76
2022/03/12 08:39:17;;;;;;;;;68.25;55.50;;;;;1.85;34.86;100947.75;4953673;28;9676;-77
2022/03/12 08:41:47;;;;;;;;;69.50;55.50;;;;;2.11;34.40;100940.59;4969372;28;8876;-76
2022/03/12 08:44:17;;;;;;;;;72.75;59.25;;;;;2.16;34.82;100946.91;4931144;28;8897;-78
2022/03/12 08:46:46;;;;;;;;;70.50;57.75;;;;;2.54;34.89;100940.41;4946664;28;8953;-76
2022/03/12 08:49:16;;;;;;;;;65.75;52.25;;;;;2.93;34.61;100940.78;4947046;28;8883;-79
2022/03/12 08:51:45;;;;;;;;;67.75;56.75;;;;;3.23;34.18;100936.34;4929783;28;8937;-75
2022/03/12 08:54:14;;;;;;;;;69.75;52.50;;;;;3.35;32.88;100938.66;4947747;28;8981;-75
2022/03/12 08:56:43;;;;;;;;;68.75;55.50;;;;;2.71;33.94;100938.75;4965500;28;9008;-78
2022/03/12 08:59:13;;;;;;;;;70.50;57.50;;;;;2.40;34.02;100943.91;4966347;28;8867;-75
2022/03/12 09:01:44;;;;;;;;;58.25;51.50;;;;;2.22;34.59;100944.66;4948972;28;8879;-77
2022/03/12 09:04:13;;;;;;;;;66.75;54.50;;;;;2.71;34.56;100946.47;4966727;28;8958;-77
2022/03/12 09:06:42;;;;;;;;;63.50;54.25;;;;;2.90;33.36;100948.34;4934877;28;8879;-78
2022/03/12 09:09:12;;;;;;;;;70.25;57.50;;;;;2.41;34.37;100945.69;4935040;28;8871;-78
2022/03/12 09:11:41;;;;;;;;;68.25;55.25;;;;;2.50;33.96;100951.34;4966223;28;8953;-78
2022/03/12 09:14:10;;;;;;;;;68.25;55.50;;;;;2.71;34.42;100936.16;4966117;28;8863;-77
2022/03/12 09:16:41;;;;;;;;;72.75;60.25;;;;;2.87;33.41;100937.84;4970184;28;8946;-77
2022/03/12 09:19:10;;;;;;;;;74.00;60.00;;;;;3.09;33.40;100938.19;4986219;28;8875;-76
2022/03/12 09:21:41;;;;;;;;;65.75;52.75;;;;;3.37;33.77;100931.00;4986345;28;8898;-77
2022/03/12 09:24:11;;;;;;;;;75.50;60.25;;;;;3.56;33.59;100935.38;4968137;28;8883;-78
2022/03/12 09:26:39;;;;;;;;;71.25;59.50;;;;;3.94;32.92;100936.38;4970723;28;8896;-77
2022/03/12 09:29:08;;;;;;;;;72.00;57.25;;;;;4.13;32.03;100933.88;4971021;28;9652;-77
2022/03/12 09:31:37;;;;;;;;;70.00;52.25;;;;;4.39;31.95;100932.53;4974489;28;8868;-79
2022/03/12 09:34:09;;;;;;;;;71.00;55.50;;;;;4.58;31.27;100930.81;4942395;28;9714;-79
2022/03/12 09:36:39;;;;;;;;;66.50;56.25;;;;;4.59;30.65;100932.56;4973638;28;8917;-77
2022/03/12 09:39:08;;;;;;;;;67.50;54.50;;;;;4.05;31.87;100937.78;4973450;28;8963;-79
2022/03/12 09:41:38;;;;;;;;;70.50;56.75;;;;;4.11;31.69;100932.91;4973741;28;8888;-80
2022/03/12 09:44:08;;;;;;;;;70.75;58.25;;;;;3.48;32.11;100935.88;4973660;28;8865;-77
2022/03/12 09:46:37;;;;;;;;;67.75;55.25;;;;;3.46;32.41;100929.75;4984523;28;8911;-77
2022/03/12 09:49:08;;;;;;;;;68.50;55.00;;;;;3.18;32.47;100927.47;4990388;28;8884;-77
2022/03/12 09:51:39;;;;;;;;;61.25;47.50;;;;;3.63;32.28;100938.34;4984913;28;8867;-77
2022/03/12 09:54:11;;;;;;;;;64.25;52.25;;;;;3.70;32.92;100921.47;4988103;28;8998;-77
2022/03/12 09:56:40;;;;;;;;;70.00;54.50;;;;;4.13;32.59;100922.66;4922165;28;8868;-77
2022/03/12 09:59:08;;;;;;;;;69.50;55.75;;;;;4.27;31.24;100914.78;4976796;28;8999;-77
2022/03/12 10:01:38;;;;;;;;;62.25;53.75;;;;;4.54;30.64;100913.38;4922707;28;8899;-77
2022/03/12 10:04:07;;;;;;;;;60.50;50.25;;;;;4.77;30.11;100914.44;4970503;28;8921;-77
2022/03/12 10:06:35;;;;;;;;;65.25;53.00;;;;;5.06;30.57;100913.13;4972819;28;8909;-80
2022/03/12 10:09:09;;;;;;;;;66.00;52.75;;;;;4.18;29.47;100914.34;4989868;28;8877;-79
2022/03/12 10:11:38;;;;;;;;;69.00;54.75;;;;;4.40;29.76;100912.75;4973116;28;8893;-80
2022/03/12 10:14:08;;;;;;;;;45.50;44.00;;;;;4.07;29.40;100918.09;4987142;28;8867;-76
2022/03/12 10:16:37;;;;;;;;;64.25;52.00;;;;;3.78;30.99;100908.94;4990171;28;8877;-79
2022/03/12 10:19:07;;;;;;;;;49.75;44.00;;;;;3.76;30.04;100910.56;4974015;28;8911;-78
2022/03/12 10:21:42;;;;;;;;;65.25;48.50;;;;;3.41;30.19;100909.72;4989671;28;8896;-77
2022/03/12 10:24:12;;;;;;;;;62.00;52.50;;;;;3.19;30.61;100908.59;4951918;28;8990;-79
2022/03/12 10:26:42;;;;;;;;;64.25;53.00;;;;;3.03;30.84;100906.94;4973313;28;8865;-77
2022/03/12 10:29:11;;;;;;;;;61.75;49.25;;;;;3.55;31.36;100906.09;4963905;28;8905;-78
2022/03/12 10:31:39;;;;;;;;;56.75;48.50;;;;;3.96;30.12;100906.38;4969529;28;8869;-77
2022/03/12 10:34:17;;;;;;;;;57.50;44.50;;;;;3.72;29.57;100909.53;4989205;28;8972;-79
2022/03/12 10:36:47;;;;;;;;;60.75;50.50;;;;;3.86;29.45;100905.06;4989255;28;8918;-79
2022/03/12 10:39:18;;;;;;;;;53.25;47.00;;;;;4.13;28.83;100905.47;5000012;28;8901;-78
2022/03/12 10:41:46;;;;;;;;;57.75;46.75;;;;;4.29;28.63;100899.31;4940389;28;8876;-78
2022/03/12 10:44:17;;;;;;;;;52.75;46.75;;;;;4.59;28.46;100896.38;4937801;28;8863;-79
2022/03/12 10:46:46;;;;;;;;;54.00;47.25;;;;;4.98;28.04;100894.69;4937829;28;8911;-77
2022/03/12 10:49:23;;;;;;;;;63.25;50.25;;;;;5.29;27.52;100888.25;4962900;28;8859;-77
2022/03/12 10:51:58;;;;;;;;;61.75;48.75;;;;;5.60;27.22;100877.50;4952677;28;9602;-77
2022/03/12 10:54:28;;;;;;;;;58.00;48.75;;;;;5.86;26.64;100881.16;4969294;28;8997;-77
2022/03/12 10:56:57;;;;;;;;;51.00;43.50;;;;;6.10;26.35;100871.72;4949505;28;8891;-79
2022/03/12 10:59:28;;;;;;;;;50.00;44.50;;;;;6.29;25.93;100865.53;4951547;28;8867;-80
2022/03/12 11:02:03;;;;;;;;;53.75;43.75;;;;;6.50;26.97;100870.66;4953045;28;8882;-76
2022/03/12 11:04:34;;;;;;;;;61.25;48.50;;;;;6.77;26.83;100871.66;4902067;28;8908;-80
2022/03/12 11:07:23;;;;;;;;;58.00;47.75;;;;;6.99;26.55;100864.66;4918959;28;9053;-77
2022/03/12 11:09:54;;;;;;;;;63.25;51.25;;;;;6.61;25.96;100865.03;4933343;28;8882;-78
2022/03/12 11:12:29;;;;;;;;;56.75;46.25;;;;;6.81;26.78;100857.13;4958612;28;8979;-77
2022/03/12 11:15:03;;;;;;;;;62.25;50.50;;;;;6.29;26.15;100856.06;4983699;28;8918;-76
2022/03/12 11:17:43;;;;;;;;;54.75;44.25;;;;;6.56;27.15;100858.81;4951097;28;8883;-79
2022/03/12 11:20:19;;;;;;;;;41.75;39.75;;;;;6.97;27.24;100846.44;4932191;28;9627;-78
2022/03/12 11:22:50;;;;;;;;;58.00;47.75;;;;;7.13;26.02;100845.28;4932733;28;8902;-81
2022/03/12 11:25:24;;;;;;;;;55.75;46.25;;;;;6.57;26.78;100854.50;4953540;28;9005;-77
2022/03/12 11:27:57;;;;;;;;;54.25;46.00;;;;;6.99;26.89;100849.09;4960109;28;8978;-77
2022/03/12 11:30:30;;;;;;;;;52.50;43.75;;;;;7.36;26.21;100838.25;4963740;28;8877;-78
2022/03/12 11:33:09;;;;;;;;;51.25;43.75;;;;;7.71;26.56;100838.53;4921849;28;13252;-78
2022/03/12 11:35:39;;;;;;;;;52.50;45.25;;;;;8.02;25.98;100831.69;4979695;28;8866;-77